Terminal Aerodrome Forecast
Issued by NWS

Home | Current Version | Previous Version | Text Only | Print | Product List | Glossary On
Versions: 1 2 3 4 5 6 7 8 9 10 11 12 13 14 15 16 17 18 19 20 21 22 23 24 25 26 27
000
FTAK31 PANC 272323
TAFADL
TAF
PADL 272323Z 2800/2824 08010KT P6SM -SHSN OVC012
     FM280300 09008KT 3SM -SN BR OVC011
     FM281200 08005KT 4SM -SNRA BR BKN011 OVC018
     FM282100 29006KT P6SM SCT015 BKN025=

USA.gov is the U.S. government's official web portal to all federal, state and local government web resources and services.